Time;durP1;ratioP1;P1;durP2;ratioP2;P2;SDS_P1;SDS_P2;PMS_P1;PMS_P2;Temp;Humidity;BMP_temperature;BMP_pressure;BME280_temperature;BME280_humidity;BME280_pressure;Samples;Min_cycle;Max_cycle;Signal;HPM_P1;HPM_P2
2023/01/13 00:01:40;;;;;;;;;;;6.20;99.90;;;;;;4954715;28;19938;-80
2023/01/13 00:04:10;;;;;;;;;;;6.20;99.90;;;;;;4952001;28;19933;-82
2023/01/13 00:06:41;;;;;;;;;;;6.20;99.90;;;;;;4951986;28;20218;-82
2023/01/13 00:09:08;;;;;;;;;;;6.20;99.90;;;;;;4953473;28;19969;-82
2023/01/13 00:11:35;;;;;;;;;;;6.30;99.90;;;;;;4957897;28;19930;-82
2023/01/13 00:14:16;;;;;;;;;;;6.20;99.90;;;;;;4955552;28;19926;-80
2023/01/13 00:16:43;;;;;;;;;;;6.20;99.90;;;;;;4960452;28;20375;-80
2023/01/13 00:19:10;;;;;;;;;;;6.20;99.90;;;;;;4942288;28;19985;-80
2023/01/13 00:21:52;;;;;;;;;;;6.20;99.90;;;;;;4942662;28;20037;-80
2023/01/13 00:24:30;;;;;;;;;;;6.20;99.90;;;;;;4955543;28;19934;-80
2023/01/13 00:26:58;;;;;;;;;;;6.20;99.90;;;;;;4960206;28;19982;-80
2023/01/13 00:29:35;;;;;;;;;;;6.20;99.90;;;;;;4959141;28;19956;-80
2023/01/13 00:32:02;;;;;;;;;;;6.20;99.90;;;;;;4951143;28;19941;-80
2023/01/13 00:34:35;;;;;;;;;;;6.20;99.90;;;;;;4952297;28;19974;-80
2023/01/13 00:37:05;;;;;;;;;;;6.20;99.90;;;;;;4953609;28;19926;-79
2023/01/13 00:39:35;;;;;;;;;;;6.20;99.90;;;;;;4949669;28;19978;-80
2023/01/13 00:44:50;;;;;;;;;;;6.20;99.90;;;;;;4963025;28;19959;-80
2023/01/13 00:47:17;;;;;;;;;;;6.20;99.90;;;;;;4951659;28;20439;-80
2023/01/13 00:49:44;;;;;;;;;;;6.20;99.90;;;;;;4952655;28;19927;-80
2023/01/13 00:52:14;;;;;;;;;;;6.20;99.90;;;;;;4954637;28;19927;-80
2023/01/13 00:54:47;;;;;;;;;;;6.20;99.90;;;;;;4935813;28;20433;-80
2023/01/13 00:57:20;;;;;;;;;;;6.20;99.90;;;;;;4952952;28;19934;-80
2023/01/13 00:59:51;;;;;;;;;;;6.30;99.90;;;;;;4950809;28;20064;-80
2023/01/13 01:02:21;;;;;;;;;;;6.20;99.90;;;;;;4954560;28;19952;-80
2023/01/13 01:07:31;;;;;;;;;;;6.30;99.90;;;;;;4951709;28;19966;-79
2023/01/13 01:10:00;;;;;;;;;;;6.30;99.90;;;;;;4949479;28;20017;-80
2023/01/13 01:12:30;;;;;;;;;;;6.20;99.90;;;;;;4954470;28;19935;-80
2023/01/13 01:15:04;;;;;;;;;;;6.30;99.90;;;;;;4952464;28;19934;-80
2023/01/13 01:17:44;;;;;;;;;;;6.30;99.90;;;;;;4936771;28;19934;-79
2023/01/13 01:20:14;;;;;;;;;;;6.30;99.90;;;;;;4958476;28;19925;-79
2023/01/13 01:22:41;;;;;;;;;;;6.20;99.90;;;;;;4959328;28;19966;-80
2023/01/13 01:25:09;;;;;;;;;;;6.20;99.90;;;;;;4942356;28;20018;-80
2023/01/13 01:27:38;;;;;;;;;;;6.20;99.90;;;;;;4947146;28;19926;-80
2023/01/13 01:30:13;;;;;;;;;;;6.20;99.90;;;;;;4951709;28;19926;-80
2023/01/13 01:32:48;;;;;;;;;;;6.20;99.90;;;;;;4948261;28;19987;-80
2023/01/13 01:35:28;;;;;;;;;;;6.20;99.90;;;;;;4948316;28;19935;-80
2023/01/13 01:37:58;;;;;;;;;;;6.20;99.90;;;;;;4952432;28;19930;-80
2023/01/13 01:40:29;;;;;;;;;;;6.20;99.90;;;;;;4945373;28;19985;-80
2023/01/13 01:45:45;;;;;;;;;;;6.20;99.90;;;;;;4953070;28;20025;-80
2023/01/13 01:48:15;;;;;;;;;;;6.20;99.90;;;;;;4950519;28;19933;-79
2023/01/13 01:50:46;;;;;;;;;;;6.30;99.90;;;;;;4948151;28;19931;-80
2023/01/13 01:53:18;;;;;;;;;;;6.20;99.90;;;;;;4936866;28;19926;-79
2023/01/13 01:55:48;;;;;;;;;;;6.30;99.90;;;;;;4950900;28;19942;-80
2023/01/13 01:58:25;;;;;;;;;;;6.30;99.90;;;;;;4949248;28;19931;-80
2023/01/13 02:00:57;;;;;;;;;;;6.20;99.90;;;;;;4949645;28;19926;-80
2023/01/13 02:03:24;;;;;;;;;;;6.20;99.90;;;;;;4950203;28;19934;-79
2023/01/13 02:05:53;;;;;;;;;;;6.30;99.90;;;;;;4950364;28;20017;-80
2023/01/13 02:08:29;;;;;;;;;;;6.30;99.90;;;;;;4948362;28;19935;-80
2023/01/13 02:10:56;;;;;;;;;;;6.30;99.90;;;;;;4945093;28;19927;-80
2023/01/13 02:13:28;;;;;;;;;;;6.30;99.90;;;;;;4950229;28;20293;-80
2023/01/13 02:16:03;;;;;;;;;;;6.30;99.90;;;;;;4946020;28;19922;-80
2023/01/13 02:18:37;;;;;;;;;;;6.30;99.90;;;;;;4951335;28;19935;-80
2023/01/13 02:21:16;;;;;;;;;;;6.30;99.90;;;;;;4949323;28;19931;-80
2023/01/13 02:26:56;;;;;;;;;;;6.20;99.90;;;;;;4949611;28;19922;-80
2023/01/13 02:32:39;;;;;;;;;;;6.30;99.90;;;;;;4951028;28;19984;-80
2023/01/13 02:35:10;;;;;;;;;;;6.30;99.90;;;;;;4951368;28;19934;-80
2023/01/13 02:37:40;;;;;;;;;;;6.20;99.90;;;;;;4949796;28;19945;-80
2023/01/13 02:40:14;;;;;;;;;;;6.20;99.90;;;;;;4936550;28;19969;-79
2023/01/13 02:45:49;;;;;;;;;;;6.20;99.90;;;;;;4954686;28;19933;-80
2023/01/13 02:48:17;;;;;;;;;;;6.20;99.90;;;;;;4951432;28;19926;-82
2023/01/13 02:50:52;;;;;;;;;;;6.20;99.90;;;;;;4952904;28;19934;-79
2023/01/13 02:53:24;;;;;;;;;;;6.20;99.90;;;;;;4936256;28;19934;-80
2023/01/13 02:55:54;;;;;;;;;;;6.20;99.90;;;;;;4935752;28;19942;-80
2023/01/13 02:58:25;;;;;;;;;;;6.20;99.90;;;;;;4958713;28;20044;-80
2023/01/13 03:00:55;;;;;;;;;;;6.20;99.90;;;;;;4952731;28;20377;-79
2023/01/13 03:03:22;;;;;;;;;;;6.20;99.90;;;;;;4954607;28;20180;-80
2023/01/13 03:05:53;;;;;;;;;;;6.20;99.90;;;;;;4959167;28;19926;-80
2023/01/13 03:08:30;;;;;;;;;;;6.20;99.90;;;;;;4936078;28;20401;-80
2023/01/13 03:11:04;;;;;;;;;;;6.20;99.90;;;;;;4953127;28;19935;-80
2023/01/13 03:13:38;;;;;;;;;;;6.20;99.90;;;;;;4954337;28;20024;-80
2023/01/13 03:16:15;;;;;;;;;;;6.20;99.90;;;;;;4957135;28;20009;-80
2023/01/13 03:18:45;;;;;;;;;;;6.20;99.90;;;;;;4941904;28;19933;-80
2023/01/13 03:21:15;;;;;;;;;;;6.20;99.90;;;;;;4936517;28;19956;-79
2023/01/13 03:23:51;;;;;;;;;;;6.20;99.90;;;;;;4951572;28;20546;-80
2023/01/13 03:26:32;;;;;;;;;;;6.20;99.90;;;;;;4951508;28;19930;-80
2023/01/13 03:29:05;;;;;;;;;;;6.20;99.90;;;;;;4950171;28;19927;-79
2023/01/13 03:31:42;;;;;;;;;;;6.20;99.90;;;;;;4954588;28;19927;-80
2023/01/13 03:34:15;;;;;;;;;;;6.20;99.90;;;;;;4957038;28;19965;-80
2023/01/13 03:36:47;;;;;;;;;;;6.20;99.90;;;;;;4951891;28;19997;-80
2023/01/13 03:39:17;;;;;;;;;;;6.20;99.90;;;;;;4954716;28;19942;-79
2023/01/13 03:41:51;;;;;;;;;;;6.20;99.90;;;;;;4936835;28;20304;-80
2023/01/13 03:44:30;;;;;;;;;;;6.20;99.90;;;;;;4940039;28;20026;-79
2023/01/13 03:47:12;;;;;;;;;;;6.20;99.90;;;;;;4946712;28;19930;-80
2023/01/13 03:49:46;;;;;;;;;;;6.20;99.90;;;;;;4954889;28;19938;-80
2023/01/13 03:52:23;;;;;;;;;;;6.20;99.90;;;;;;4935485;28;19931;-80
2023/01/13 03:54:55;;;;;;;;;;;6.20;99.90;;;;;;4949976;28;19930;-80
2023/01/13 03:57:30;;;;;;;;;;;6.20;99.90;;;;;;4950358;28;20389;-79
2023/01/13 04:00:04;;;;;;;;;;;6.20;99.90;;;;;;4955690;28;19931;-79
2023/01/13 04:02:48;;;;;;;;;;;6.20;99.90;;;;;;4951373;28;19986;-80
2023/01/13 04:05:20;;;;;;;;;;;6.20;99.90;;;;;;4953533;28;19926;-79
2023/01/13 04:07:54;;;;;;;;;;;6.20;99.90;;;;;;4942462;28;19993;-80
2023/01/13 04:10:26;;;;;;;;;;;6.20;99.90;;;;;;4956021;28;19938;-80
2023/01/13 04:13:05;;;;;;;;;;;6.20;99.90;;;;;;4952073;28;19926;-80
2023/01/13 04:15:34;;;;;;;;;;;6.20;99.90;;;;;;4950946;28;19935;-80
2023/01/13 04:18:26;;;;;;;;;;;6.20;99.90;;;;;;4950987;28;19926;-80
2023/01/13 04:20:54;;;;;;;;;;;6.10;99.90;;;;;;4933312;28;19963;-79
2023/01/13 04:23:27;;;;;;;;;;;6.10;99.90;;;;;;4947500;28;19930;-80
2023/01/13 04:26:02;;;;;;;;;;;6.20;99.90;;;;;;4947959;28;19985;-80
2023/01/13 04:28:29;;;;;;;;;;;6.10;99.90;;;;;;4954086;28;19958;-80
2023/01/13 04:30:59;;;;;;;;;;;6.20;99.90;;;;;;4929098;28;20013;-80
2023/01/13 04:33:30;;;;;;;;;;;6.20;99.90;;;;;;4951862;28;20384;-80
2023/01/13 04:36:01;;;;;;;;;;;6.20;99.90;;;;;;4951929;28;19927;-80
2023/01/13 04:38:32;;;;;;;;;;;6.20;99.90;;;;;;4954135;28;19926;-80
2023/01/13 04:41:03;;;;;;;;;;;6.20;99.90;;;;;;4953277;28;21004;-80
2023/01/13 04:43:31;;;;;;;;;;;6.20;99.90;;;;;;4946976;28;19934;-79
2023/01/13 04:45:58;;;;;;;;;;;6.20;99.90;;;;;;4953545;28;20017;-79
2023/01/13 04:48:25;;;;;;;;;;;6.20;99.90;;;;;;4947838;28;19930;-79
2023/01/13 04:50:56;;;;;;;;;;;6.20;99.90;;;;;;4942601;28;19982;-79
2023/01/13 04:53:24;;;;;;;;;;;6.20;99.90;;;;;;4934686;28;20057;-79
2023/01/13 04:55:51;;;;;;;;;;;6.10;99.90;;;;;;4934603;28;20388;-80
2023/01/13 04:58:18;;;;;;;;;;;6.20;99.90;;;;;;4946079;28;19985;-80
2023/01/13 05:00:48;;;;;;;;;;;6.10;99.90;;;;;;4933679;28;20389;-79
2023/01/13 05:03:15;;;;;;;;;;;6.20;99.90;;;;;;4941186;28;20288;-78
2023/01/13 05:05:42;;;;;;;;;;;6.20;99.90;;;;;;4916538;28;19993;-79
2023/01/13 05:08:13;;;;;;;;;;;6.20;99.90;;;;;;4943718;28;19938;-79
2023/01/13 05:10:41;;;;;;;;;;;6.20;99.90;;;;;;4949209;28;20615;-79
2023/01/13 05:18:47;;;;;;;;;;;6.20;99.90;;;;;;4942276;28;19933;-79
2023/01/13 05:26:54;;;;;;;;;;;6.20;99.90;;;;;;4948695;28;20420;-79
2023/01/13 05:29:22;;;;;;;;;;;6.20;99.90;;;;;;4949344;28;19927;-79
2023/01/13 05:31:49;;;;;;;;;;;6.20;99.90;;;;;;4954312;28;20380;-79
2023/01/13 05:34:18;;;;;;;;;;;6.20;99.90;;;;;;4953603;28;19946;-79
2023/01/13 05:36:47;;;;;;;;;;;6.20;99.90;;;;;;4951633;28;20218;-79
2023/01/13 05:39:15;;;;;;;;;;;6.20;99.90;;;;;;4953139;28;19976;-79
2023/01/13 05:44:26;;;;;;;;;;;6.20;99.90;;;;;;4943180;28;20411;-78
2023/01/13 05:47:02;;;;;;;;;;;6.20;99.90;;;;;;4926419;28;20381;-79
2023/01/13 05:49:31;;;;;;;;;;;6.30;99.90;;;;;;4953892;28;19930;-79
2023/01/13 05:51:58;;;;;;;;;;;6.20;99.90;;;;;;4950320;28;20309;-79
2023/01/13 05:54:31;;;;;;;;;;;6.20;99.90;;;;;;4951913;28;19934;-79
2023/01/13 05:57:01;;;;;;;;;;;6.30;99.90;;;;;;4946412;28;20453;-79
2023/01/13 05:59:33;;;;;;;;;;;6.20;99.90;;;;;;4967182;28;19974;-79
2023/01/13 06:02:00;;;;;;;;;;;6.30;99.90;;;;;;4944683;28;20397;-78
2023/01/13 06:04:27;;;;;;;;;;;6.30;99.90;;;;;;4935415;28;20013;-78
2023/01/13 06:06:57;;;;;;;;;;;6.30;99.90;;;;;;4933900;28;19926;-79
2023/01/13 06:09:24;;;;;;;;;;;6.30;99.90;;;;;;4945706;28;19934;-78
2023/01/13 06:11:56;;;;;;;;;;;6.30;99.90;;;;;;4954806;28;19926;-79
2023/01/13 06:14:24;;;;;;;;;;;6.30;99.90;;;;;;4957238;28;20398;-79
2023/01/13 06:16:51;;;;;;;;;;;6.30;99.90;;;;;;4955284;28;21699;-78
2023/01/13 06:19:19;;;;;;;;;;;6.40;99.90;;;;;;4951587;28;19934;-79
2023/01/13 06:24:40;;;;;;;;;;;6.40;99.90;;;;;;4957348;28;20024;-79
2023/01/13 06:27:12;;;;;;;;;;;6.40;99.90;;;;;;4950474;28;19977;-79
2023/01/13 06:29:40;;;;;;;;;;;6.40;99.90;;;;;;4964074;28;19961;-79
2023/01/13 06:32:10;;;;;;;;;;;6.40;99.90;;;;;;4966622;28;20009;-79
2023/01/13 06:34:37;;;;;;;;;;;6.40;99.90;;;;;;4960956;28;19942;-79
2023/01/13 06:37:06;;;;;;;;;;;6.40;99.90;;;;;;4940615;28;20060;-79
2023/01/13 06:39:34;;;;;;;;;;;6.40;99.90;;;;;;4950593;28;19937;-79
2023/01/13 06:47:18;;;;;;;;;;;6.40;99.90;;;;;;4939888;28;19930;-80
2023/01/13 06:49:47;;;;;;;;;;;6.50;99.90;;;;;;4936479;28;19927;-80
2023/01/13 06:52:16;;;;;;;;;;;6.50;99.90;;;;;;4943374;28;20448;-80
2023/01/13 06:54:46;;;;;;;;;;;6.50;99.90;;;;;;4939137;29;19935;-80
2023/01/13 06:57:19;;;;;;;;;;;6.50;99.90;;;;;;4943847;29;19930;-80
2023/01/13 06:59:51;;;;;;;;;;;6.50;99.90;;;;;;4944280;29;20583;-80
2023/01/13 07:02:23;;;;;;;;;;;6.50;99.90;;;;;;4945511;28;19933;-79
2023/01/13 07:04:50;;;;;;;;;;;6.50;99.90;;;;;;4945177;29;19942;-80
2023/01/13 07:07:18;;;;;;;;;;;6.50;99.90;;;;;;4949863;28;19927;-80
2023/01/13 07:09:54;;;;;;;;;;;6.50;99.90;;;;;;4929047;29;19935;-80
2023/01/13 07:12:21;;;;;;;;;;;6.50;99.90;;;;;;4957517;28;20022;-80
2023/01/13 07:17:36;;;;;;;;;;;6.50;99.90;;;;;;4950610;29;20424;-80
2023/01/13 07:20:03;;;;;;;;;;;6.60;99.90;;;;;;4942781;29;19935;-80
2023/01/13 07:22:30;;;;;;;;;;;6.60;99.90;;;;;;4941705;28;20014;-80
2023/01/13 07:24:57;;;;;;;;;;;6.50;99.90;;;;;;4947515;28;19958;-80
2023/01/13 07:27:24;;;;;;;;;;;6.60;99.90;;;;;;4944326;28;19965;-80
2023/01/13 07:29:58;;;;;;;;;;;6.50;99.90;;;;;;4939829;29;19938;-80
2023/01/13 07:32:27;;;;;;;;;;;6.60;99.90;;;;;;4923468;29;19938;-80
2023/01/13 07:34:57;;;;;;;;;;;6.60;99.90;;;;;;4931702;29;19931;-80
2023/01/13 07:37:26;;;;;;;;;;;6.60;99.90;;;;;;4940517;29;20073;-80
2023/01/13 07:39:53;;;;;;;;;;;6.60;99.90;;;;;;4921929;29;20019;-80
2023/01/13 07:45:11;;;;;;;;;;;6.60;99.90;;;;;;4942066;28;19927;-80
2023/01/13 07:47:40;;;;;;;;;;;6.60;99.90;;;;;;4961079;28;19930;-80
2023/01/13 07:50:12;;;;;;;;;;;6.60;99.90;;;;;;4960727;28;19974;-80
2023/01/13 07:52:42;;;;;;;;;;;6.60;99.90;;;;;;4953727;28;19926;-80
2023/01/13 07:55:09;;;;;;;;;;;6.60;99.90;;;;;;4963839;28;19956;-80
2023/01/13 07:57:36;;;;;;;;;;;6.60;99.90;;;;;;4957306;28;19927;-80
2023/01/13 08:00:06;;;;;;;;;;;6.70;99.90;;;;;;4961047;28;19989;-80
2023/01/13 08:02:39;;;;;;;;;;;6.70;99.90;;;;;;4965722;28;19932;-80
2023/01/13 08:05:06;;;;;;;;;;;6.60;99.90;;;;;;4958010;28;19934;-80
2023/01/13 08:07:39;;;;;;;;;;;6.70;99.90;;;;;;4958082;28;20009;-80
2023/01/13 08:10:10;;;;;;;;;;;6.70;99.90;;;;;;4962456;28;19990;-80
2023/01/13 08:15:22;;;;;;;;;;;6.70;99.90;;;;;;4956534;28;19931;-80
2023/01/13 08:17:49;;;;;;;;;;;6.70;99.90;;;;;;4958552;28;19974;-80
2023/01/13 08:20:19;;;;;;;;;;;6.70;99.90;;;;;;4960215;28;19935;-80
2023/01/13 08:22:50;;;;;;;;;;;6.70;99.90;;;;;;4963150;28;19958;-80
2023/01/13 08:25:17;;;;;;;;;;;6.70;99.90;;;;;;4955184;28;19963;-80
2023/01/13 08:27:46;;;;;;;;;;;6.70;99.90;;;;;;4940405;28;19932;-80
2023/01/13 08:30:16;;;;;;;;;;;6.70;99.90;;;;;;4973640;28;19954;-80
2023/01/13 08:32:47;;;;;;;;;;;6.70;99.90;;;;;;4967858;28;19927;-80
2023/01/13 08:35:18;;;;;;;;;;;6.80;99.90;;;;;;4961695;28;19982;-80
2023/01/13 08:37:46;;;;;;;;;;;6.80;99.90;;;;;;4964312;28;19935;-80
2023/01/13 08:40:15;;;;;;;;;;;6.80;99.90;;;;;;4973012;28;20373;-80
2023/01/13 08:42:43;;;;;;;;;;;6.80;99.90;;;;;;4936776;28;19969;-81
2023/01/13 08:45:11;;;;;;;;;;;6.80;99.90;;;;;;4966198;28;19934;-80
2023/01/13 08:47:44;;;;;;;;;;;6.70;99.90;;;;;;4973644;28;19935;-80
2023/01/13 08:50:14;;;;;;;;;;;6.80;99.90;;;;;;4967821;28;19937;-80
2023/01/13 08:52:41;;;;;;;;;;;6.80;99.90;;;;;;4962691;28;19930;-80
2023/01/13 08:55:08;;;;;;;;;;;6.80;99.90;;;;;;4966421;28;19953;-80
2023/01/13 08:57:40;;;;;;;;;;;6.80;99.90;;;;;;4943781;28;19930;-81
2023/01/13 09:00:17;;;;;;;;;;;6.80;99.90;;;;;;4961942;28;20003;-80
2023/01/13 09:02:46;;;;;;;;;;;6.80;99.90;;;;;;4966283;28;19935;-80
2023/01/13 09:05:16;;;;;;;;;;;6.80;99.90;;;;;;4953774;28;19926;-80
2023/01/13 09:07:55;;;;;;;;;;;6.80;99.90;;;;;;4965864;28;19968;-80
2023/01/13 09:10:25;;;;;;;;;;;6.80;99.90;;;;;;4965737;28;19930;-80
2023/01/13 09:13:11;;;;;;;;;;;6.80;99.90;;;;;;4965693;28;20303;-80
2023/01/13 09:15:39;;;;;;;;;;;6.90;99.90;;;;;;4968994;28;19999;-80
2023/01/13 09:18:09;;;;;;;;;;;6.90;99.90;;;;;;4967860;28;19927;-80
2023/01/13 09:20:45;;;;;;;;;;;6.90;99.90;;;;;;4968560;28;19930;-80
2023/01/13 09:23:13;;;;;;;;;;;6.90;99.90;;;;;;4946458;28;19980;-80
2023/01/13 09:25:40;;;;;;;;;;;6.90;99.90;;;;;;4967044;28;19927;-80
2023/01/13 09:28:18;;;;;;;;;;;6.90;99.90;;;;;;4947348;28;20025;-81
2023/01/13 09:30:50;;;;;;;;;;;6.90;99.90;;;;;;4938584;28;19927;-80
2023/01/13 09:36:12;;;;;;;;;;;7.00;99.90;;;;;;4956480;28;19923;-81
2023/01/13 09:38:39;;;;;;;;;;;7.00;99.90;;;;;;4970173;28;19970;-80
2023/01/13 09:43:52;;;;;;;;;;;7.00;99.90;;;;;;4965739;28;19998;-80
2023/01/13 09:43:59;;;;;;;;;;;7.10;99.90;;;;;;4953046;28;19926;-80
2023/01/13 09:46:46;;;;;;;;;;;7.10;99.90;;;;;;4964227;28;19990;-81
2023/01/13 09:49:19;;;;;;;;;;;7.10;99.90;;;;;;4948068;28;20178;-80
2023/01/13 09:51:49;;;;;;;;;;;7.20;99.90;;;;;;4970000;28;19926;-80
2023/01/13 09:54:22;;;;;;;;;;;7.10;99.90;;;;;;4970234;28;19949;-79
2023/01/13 09:56:49;;;;;;;;;;;7.20;99.90;;;;;;4971153;28;19926;-80
2023/01/13 09:59:18;;;;;;;;;;;7.20;99.90;;;;;;4973983;28;19938;-80
2023/01/13 10:01:48;;;;;;;;;;;7.20;99.90;;;;;;4970270;28;19958;-80
2023/01/13 10:04:16;;;;;;;;;;;7.20;99.90;;;;;;4975440;28;19926;-80
2023/01/13 10:06:47;;;;;;;;;;;7.20;99.90;;;;;;4969617;28;20447;-80
2023/01/13 10:09:16;;;;;;;;;;;7.30;99.90;;;;;;4975729;28;20041;-80
2023/01/13 10:14:34;;;;;;;;;;;7.30;99.90;;;;;;4966454;28;20396;-81
2023/01/13 10:17:06;;;;;;;;;;;7.40;99.90;;;;;;4979088;28;19934;-81
2023/01/13 10:19:37;;;;;;;;;;;7.30;99.90;;;;;;4976800;28;20373;-81
2023/01/13 10:22:24;;;;;;;;;;;7.30;99.90;;;;;;4975672;28;19926;-81
2023/01/13 10:25:08;;;;;;;;;;;7.40;99.90;;;;;;4970628;28;19930;-80
2023/01/13 10:27:36;;;;;;;;;;;7.40;99.90;;;;;;4972040;28;19958;-81
2023/01/13 10:30:18;;;;;;;;;;;7.40;99.90;;;;;;4958914;28;19958;-80
2023/01/13 10:32:52;;;;;;;;;;;7.40;99.90;;;;;;4962036;28;19926;-80
2023/01/13 10:35:43;;;;;;;;;;;7.40;99.90;;;;;;4960808;28;19966;-80
2023/01/13 10:38:16;;;;;;;;;;;7.50;99.90;;;;;;4974710;28;19927;-81
2023/01/13 10:40:47;;;;;;;;;;;7.50;99.90;;;;;;4977738;28;20896;-80
2023/01/13 10:43:15;;;;;;;;;;;7.50;99.90;;;;;;4951397;28;19934;-80
2023/01/13 10:45:51;;;;;;;;;;;7.50;99.90;;;;;;4973411;28;19926;-80
2023/01/13 10:48:18;;;;;;;;;;;7.50;99.90;;;;;;4972991;28;19926;-81
2023/01/13 10:50:48;;;;;;;;;;;7.50;99.90;;;;;;4975133;28;20032;-80
2023/01/13 10:53:17;;;;;;;;;;;7.60;99.90;;;;;;4977027;28;19966;-80
2023/01/13 10:55:57;;;;;;;;;;;7.60;99.90;;;;;;4962970;28;20352;-80
2023/01/13 10:58:25;;;;;;;;;;;7.60;99.90;;;;;;4973435;28;19949;-81
2023/01/13 11:01:01;;;;;;;;;;;7.70;99.90;;;;;;4965417;28;19954;-80
2023/01/13 11:03:40;;;;;;;;;;;7.60;99.90;;;;;;4975643;28;19934;-80
2023/01/13 11:06:09;;;;;;;;;;;7.70;99.90;;;;;;4970142;28;19930;-81
2023/01/13 11:08:44;;;;;;;;;;;7.70;99.90;;;;;;5277436;23;19934;-79
2023/01/13 11:11:31;;;;;;;;;;;7.70;99.90;;;;;;4966126;28;19935;-81
2023/01/13 11:16:52;;;;;;;;;;;7.70;99.90;;;;;;4956159;28;19926;-81
2023/01/13 11:19:21;;;;;;;;;;;7.70;99.90;;;;;;4974436;28;20415;-81
2023/01/13 11:24:34;;;;;;;;;;;7.70;99.90;;;;;;4946318;28;19927;-82
2023/01/13 11:27:04;;;;;;;;;;;7.70;99.90;;;;;;4957647;28;19966;-80
2023/01/13 11:38:01;;;;;;;;;;;7.70;99.90;;;;;;5140882;23;19931;-80
2023/01/13 13:25:58;;;;;;;;;;;6.80;99.90;;;;;;5988315;23;20145;-80
2023/01/13 14:49:29;;;;;;;;;;;6.70;99.90;;;;;;5663702;23;19955;-79
2023/01/13 14:52:03;;;;;;;;;;;6.70;99.90;;;;;;4917306;29;19946;-79
2023/01/13 14:54:46;;;;;;;;;;;6.70;99.90;;;;;;4930815;29;20364;-78
2023/01/13 14:57:14;;;;;;;;;;;6.70;99.90;;;;;;4916846;29;19978;-80
2023/01/13 14:59:43;;;;;;;;;;;6.70;99.90;;;;;;4930059;29;19934;-79
2023/01/13 15:02:28;;;;;;;;;;;6.60;99.90;;;;;;4932025;28;19930;-79
2023/01/13 15:05:20;;;;;;;;;;;6.60;99.90;;;;;;4933348;29;19930;-79
2023/01/13 15:07:58;;;;;;;;;;;6.70;99.90;;;;;;4926862;29;19934;-78
2023/01/13 15:10:27;;;;;;;;;;;6.60;99.90;;;;;;4930984;29;20072;-79
2023/01/13 15:12:55;;;;;;;;;;;6.60;99.90;;;;;;4929751;29;19966;-79
2023/01/13 15:15:23;;;;;;;;;;;6.70;99.90;;;;;;4929814;29;19927;-79
2023/01/13 15:17:50;;;;;;;;;;;6.60;99.90;;;;;;4912178;29;19978;-78
2023/01/13 15:20:19;;;;;;;;;;;6.60;99.90;;;;;;4933605;29;19931;-79
2023/01/13 15:22:47;;;;;;;;;;;6.60;99.90;;;;;;4924397;29;19950;-79
2023/01/13 15:25:14;;;;;;;;;;;6.60;99.90;;;;;;4923453;29;19935;-79
2023/01/13 15:27:41;;;;;;;;;;;6.60;99.90;;;;;;4925940;29;19927;-78
2023/01/13 15:30:13;;;;;;;;;;;6.60;99.90;;;;;;4911007;29;19981;-79
2023/01/13 15:32:40;;;;;;;;;;;6.60;99.90;;;;;;4935021;29;20447;-79
2023/01/13 15:35:07;;;;;;;;;;;6.60;99.90;;;;;;4910086;29;19931;-79
2023/01/13 15:37:36;;;;;;;;;;;6.60;99.90;;;;;;4928883;29;19985;-80
2023/01/13 15:40:06;;;;;;;;;;;6.60;99.90;;;;;;4931517;29;19975;-79
2023/01/13 15:48:02;;;;;;;;;;;6.50;99.90;;;;;;4909603;29;19927;-79
2023/01/13 15:50:29;;;;;;;;;;;6.60;99.90;;;;;;4931473;29;19934;-78
2023/01/13 15:52:57;;;;;;;;;;;6.50;99.90;;;;;;4926390;29;19938;-79
2023/01/13 15:55:24;;;;;;;;;;;6.60;99.90;;;;;;4934650;29;21583;-79
2023/01/13 15:57:51;;;;;;;;;;;6.50;99.90;;;;;;4913961;29;19926;-79
2023/01/13 16:00:20;;;;;;;;;;;6.60;99.90;;;;;;4932495;29;19934;-79
2023/01/13 16:02:47;;;;;;;;;;;6.50;99.90;;;;;;4910361;29;19933;-79
2023/01/13 16:05:14;;;;;;;;;;;6.50;99.90;;;;;;4913605;29;19978;-79
2023/01/13 16:07:41;;;;;;;;;;;6.50;99.90;;;;;;4936859;29;20021;-79
2023/01/13 16:10:15;;;;;;;;;;;6.50;99.90;;;;;;4913093;29;19928;-79
2023/01/13 16:12:42;;;;;;;;;;;6.50;99.90;;;;;;4940782;28;20317;-80
2023/01/13 16:15:09;;;;;;;;;;;6.50;99.90;;;;;;4932845;29;19978;-80
2023/01/13 16:17:37;;;;;;;;;;;6.50;99.90;;;;;;4914694;29;20416;-79
2023/01/13 16:20:06;;;;;;;;;;;6.50;99.90;;;;;;4910229;29;19961;-80
2023/01/13 16:22:34;;;;;;;;;;;6.50;99.90;;;;;;4913574;29;19930;-80
2023/01/13 16:25:03;;;;;;;;;;;6.50;99.90;;;;;;4929832;29;19931;-79
2023/01/13 16:27:31;;;;;;;;;;;6.50;99.90;;;;;;4911851;29;19949;-80
2023/01/13 16:30:00;;;;;;;;;;;6.50;99.90;;;;;;4933620;29;19953;-78
2023/01/13 16:32:28;;;;;;;;;;;6.50;99.90;;;;;;4933419;29;19980;-80
2023/01/13 16:34:55;;;;;;;;;;;6.50;99.90;;;;;;4931828;29;19927;-80
2023/01/13 16:37:23;;;;;;;;;;;6.50;99.90;;;;;;4945301;28;19942;-80
2023/01/13 16:39:50;;;;;;;;;;;6.50;99.90;;;;;;4933305;29;20025;-80
2023/01/13 16:42:17;;;;;;;;;;;6.50;99.90;;;;;;4931963;28;19935;-80
2023/01/13 16:44:47;;;;;;;;;;;6.50;99.90;;;;;;4927426;29;20406;-80
2023/01/13 16:47:15;;;;;;;;;;;6.50;99.90;;;;;;4930256;29;19985;-80
2023/01/13 16:49:42;;;;;;;;;;;6.50;99.90;;;;;;4947946;28;19931;-80
2023/01/13 16:52:09;;;;;;;;;;;6.50;99.90;;;;;;4943949;28;19926;-80
2023/01/13 16:54:35;;;;;;;;;;;6.40;99.90;;;;;;4944704;29;19927;-80
2023/01/13 16:57:02;;;;;;;;;;;6.50;99.90;;;;;;4932873;29;19941;-80
2023/01/13 16:59:29;;;;;;;;;;;6.50;99.90;;;;;;4939406;28;19927;-80
2023/01/13 17:01:58;;;;;;;;;;;6.40;99.90;;;;;;4943497;29;19931;-80
2023/01/13 17:04:24;;;;;;;;;;;6.40;99.90;;;;;;4924639;29;19958;-80
2023/01/13 17:06:54;;;;;;;;;;;6.40;99.90;;;;;;4938613;29;19934;-80
2023/01/13 17:09:21;;;;;;;;;;;6.40;99.90;;;;;;4935342;29;19934;-80
2023/01/13 17:11:48;;;;;;;;;;;6.40;99.90;;;;;;4938876;29;19927;-80
2023/01/13 17:14:16;;;;;;;;;;;6.40;99.90;;;;;;4925804;29;19958;-80
2023/01/13 17:16:43;;;;;;;;;;;6.40;99.90;;;;;;4937941;28;19941;-79
2023/01/13 17:19:11;;;;;;;;;;;6.40;99.90;;;;;;4936922;29;20375;-79
2023/01/13 17:21:38;;;;;;;;;;;6.40;99.90;;;;;;4925171;29;19926;-79
2023/01/13 17:24:06;;;;;;;;;;;6.40;99.90;;;;;;4936494;29;19981;-80
2023/01/13 17:26:36;;;;;;;;;;;6.40;99.90;;;;;;4924624;29;19930;-79
2023/01/13 17:29:04;;;;;;;;;;;6.40;99.90;;;;;;4935997;28;20036;-79
2023/01/13 17:31:31;;;;;;;;;;;6.40;99.90;;;;;;4920228;29;19926;-79
2023/01/13 17:33:58;;;;;;;;;;;6.40;99.90;;;;;;4943400;29;20020;-80
2023/01/13 17:36:26;;;;;;;;;;;6.40;99.90;;;;;;4938649;28;19934;-80
2023/01/13 17:38:54;;;;;;;;;;;6.40;99.90;;;;;;4939114;28;19931;-79
2023/01/13 17:41:21;;;;;;;;;;;6.40;99.90;;;;;;4940396;29;19927;-80
2023/01/13 17:43:48;;;;;;;;;;;6.40;99.90;;;;;;4930150;29;19945;-79
2023/01/13 17:46:17;;;;;;;;;;;6.40;99.90;;;;;;4938790;29;20424;-80
2023/01/13 17:48:44;;;;;;;;;;;6.30;99.90;;;;;;4935268;28;19927;-80
2023/01/13 17:51:11;;;;;;;;;;;6.30;99.90;;;;;;4919946;29;19940;-80
2023/01/13 17:53:40;;;;;;;;;;;6.30;99.90;;;;;;4940258;28;19974;-80
2023/01/13 17:56:07;;;;;;;;;;;6.30;99.90;;;;;;4940370;29;20019;-80
2023/01/13 17:58:34;;;;;;;;;;;6.30;99.90;;;;;;4941656;28;20337;-80
2023/01/13 18:01:06;;;;;;;;;;;6.30;99.90;;;;;;4942119;28;19973;-80
2023/01/13 18:03:33;;;;;;;;;;;6.30;99.90;;;;;;4920448;29;19934;-80
2023/01/13 18:06:01;;;;;;;;;;;6.30;99.90;;;;;;4943849;29;19942;-79
2023/01/13 18:08:28;;;;;;;;;;;6.30;99.90;;;;;;4937782;29;20127;-79
2023/01/13 18:10:58;;;;;;;;;;;6.30;99.90;;;;;;4921428;29;19931;-79
2023/01/13 18:13:25;;;;;;;;;;;6.30;99.90;;;;;;4931301;29;19948;-80
2023/01/13 18:15:59;;;;;;;;;;;6.30;99.90;;;;;;4943308;29;19954;-80
2023/01/13 18:18:26;;;;;;;;;;;6.30;99.90;;;;;;4934611;29;19959;-80
2023/01/13 18:29:08;;;;;;;;;;;6.30;99.90;;;;;;4943861;29;19953;-79
2023/01/13 18:31:35;;;;;;;;;;;6.30;99.90;;;;;;4941647;29;19975;-80
2023/01/13 18:34:02;;;;;;;;;;;6.30;99.90;;;;;;4939161;29;19927;-80
2023/01/13 18:36:29;;;;;;;;;;;6.30;99.90;;;;;;4927084;28;19930;-80
2023/01/13 18:38:56;;;;;;;;;;;6.30;99.90;;;;;;4928760;29;19927;-79
2023/01/13 18:44:08;;;;;;;;;;;6.30;99.90;;;;;;4952841;29;19935;-80
2023/01/13 18:46:35;;;;;;;;;;;6.30;99.90;;;;;;4928345;28;19933;-80
2023/01/13 18:49:02;;;;;;;;;;;6.20;99.90;;;;;;4921635;29;19981;-80
2023/01/13 18:51:29;;;;;;;;;;;6.20;99.90;;;;;;4921794;29;19934;-79
2023/01/13 18:53:56;;;;;;;;;;;6.20;99.90;;;;;;4940859;29;20428;-80
2023/01/13 18:56:23;;;;;;;;;;;6.20;99.90;;;;;;4942834;29;19951;-79
2023/01/13 18:58:52;;;;;;;;;;;6.20;99.90;;;;;;4949469;29;20420;-80
2023/01/13 19:01:23;;;;;;;;;;;6.20;99.90;;;;;;4943101;29;19926;-80
2023/01/13 19:03:54;;;;;;;;;;;6.20;99.90;;;;;;4945001;28;19956;-80
2023/01/13 19:06:21;;;;;;;;;;;6.20;99.90;;;;;;4952140;28;19965;-79
2023/01/13 19:08:52;;;;;;;;;;;6.20;99.90;;;;;;4937581;29;19937;-80
2023/01/13 19:11:22;;;;;;;;;;;6.10;99.90;;;;;;4935110;29;19934;-79
2023/01/13 19:13:49;;;;;;;;;;;6.20;99.90;;;;;;4944342;28;20006;-80
2023/01/13 19:16:18;;;;;;;;;;;6.20;99.90;;;;;;4939792;29;19974;-79
2023/01/13 19:18:45;;;;;;;;;;;6.10;99.90;;;;;;4923539;29;19926;-79
2023/01/13 19:21:12;;;;;;;;;;;6.10;99.90;;;;;;4919927;29;20409;-80